Hlavní strana
METAR-TAF:

METAR-TAF

Letiště :

Gulf Shores, Alabama, Spojené státy americké

zeměpisná šířka: 30-17-23N, zeměpisná délka: 087-40-18W, výška: 5 m

Aktuální stav počasí

Zpráva byla vytvořena před 18 minutami, v 10:55 UTC
Bezvětří
Teplota 20°C
Vlhkost vzduchu 100%
Tlak 1020 hPa
Viditelnost: 4.8 km
Jasno
kouřmo

METAR: KJKA 261055Z AUTO 00000KT 3SM BR CLR 20/20 A3012 RMK AO2 T02030202

Čas: 06:13 (11:13 UTC)


TAF: chybějící

Stav a předpovědi počasí z více než 4 000 letišť (zprávy METAR a TAF).

Červené a žluté tečky na mapě představují dostupné meteorologické stanice.

Když kurzor umístíte na tečku, zobrazí se název stanice.

Pak kliknutím zobrazíte stav a předpověď počasí.

Chcete-li změnit mapu, kliknutím na zelené tlačítko se znaménkem +mapu přiblížíte, kliknutím na zelené tlačítko se znaménkem – mapu oddálíte a kliknutím na zelené šipky přejdete na sousední mapy.


METAR-TAF: